sensor_id;sensor_type;location;lat;lon;timestamp;pressure;altitude;pressure_sealevel;temperature;humidity
27705;BME280;15109;50.992;6.918;2023-02-22T00:01:51;100938.84;;;7.37;100.00
27705;BME280;15109;50.992;6.918;2023-02-22T00:05:30;100941.06;;;7.33;100.00
27705;BME280;15109;50.992;6.918;2023-02-22T00:08:51;100936.44;;;7.34;100.00
27705;BME280;15109;50.992;6.918;2023-02-22T00:12:12;100944.78;;;7.32;100.00
27705;BME280;15109;50.992;6.918;2023-02-22T00:15:34;100932.03;;;7.33;100.00
27705;BME280;15109;50.992;6.918;2023-02-22T00:18:55;100934.44;;;7.36;100.00
27705;BME280;15109;50.992;6.918;2023-02-22T00:22:16;100938.47;;;7.32;100.00
27705;BME280;15109;50.992;6.918;2023-02-22T00:25:39;100924.72;;;7.33;100.00
27705;BME280;15109;50.992;6.918;2023-02-22T00:29:00;100919.59;;;7.30;100.00
27705;BME280;15109;50.992;6.918;2023-02-22T00:32:21;100923.66;;;7.26;100.00
27705;BME280;15109;50.992;6.918;2023-02-22T00:35:44;100915.50;;;7.26;100.00
27705;BME280;15109;50.992;6.918;2023-02-22T00:39:05;100919.53;;;7.22;100.00
27705;BME280;15109;50.992;6.918;2023-02-22T00:42:27;100915.59;;;7.16;100.00
27705;BME280;15109;50.992;6.918;2023-02-22T00:45:48;100915.91;;;7.13;100.00
27705;BME280;15109;50.992;6.918;2023-02-22T00:49:09;100922.31;;;7.04;100.00
27705;BME280;15109;50.992;6.918;2023-02-22T00:52:30;100917.19;;;7.01;100.00
27705;BME280;15109;50.992;6.918;2023-02-22T00:55:52;100900.34;;;6.98;100.00
27705;BME280;15109;50.992;6.918;2023-02-22T00:59:13;100911.47;;;6.87;100.00
27705;BME280;15109;50.992;6.918;2023-02-22T01:02:34;100900.41;;;6.80;100.00
27705;BME280;15109;50.992;6.918;2023-02-22T01:05:55;100903.97;;;6.80;100.00
27705;BME280;15109;50.992;6.918;2023-02-22T01:09:16;100898.69;;;6.79;100.00
27705;BME280;15109;50.992;6.918;2023-02-22T01:12:37;100891.84;;;6.75;100.00
27705;BME280;15109;50.992;6.918;2023-02-22T01:15:58;100892.25;;;6.80;100.00
27705;BME280;15109;50.992;6.918;2023-02-22T01:19:21;100887.47;;;6.82;100.00
27705;BME280;15109;50.992;6.918;2023-02-22T01:22:44;100884.94;;;6.80;100.00
27705;BME280;15109;50.992;6.918;2023-02-22T01:26:06;100884.09;;;6.80;100.00
27705;BME280;15109;50.992;6.918;2023-02-22T01:29:27;100881.69;;;6.77;100.00
27705;BME280;15109;50.992;6.918;2023-02-22T01:32:48;100879.28;;;6.74;100.00
27705;BME280;15109;50.992;6.918;2023-02-22T01:36:10;100874.88;;;6.73;100.00
27705;BME280;15109;50.992;6.918;2023-02-22T01:39:32;100876.75;;;6.72;100.00
27705;BME280;15109;50.992;6.918;2023-02-22T01:42:55;100868.41;;;6.74;100.00
27705;BME280;15109;50.992;6.918;2023-02-22T01:46:25;100861.50;;;6.79;100.00
27705;BME280;15109;50.992;6.918;2023-02-22T01:49:49;100856.84;;;6.72;100.00
27705;BME280;15109;50.992;6.918;2023-02-22T01:53:13;100857.72;;;6.72;100.00
27705;BME280;15109;50.992;6.918;2023-02-22T01:56:39;100856.22;;;6.78;100.00
27705;BME280;15109;50.992;6.918;2023-02-22T02:00:06;100849.44;;;6.82;100.00
27705;BME280;15109;50.992;6.918;2023-02-22T02:03:35;100839.94;;;6.86;100.00
27705;BME280;15109;50.992;6.918;2023-02-22T02:07:02;100838.09;;;6.87;100.00
27705;BME280;15109;50.992;6.918;2023-02-22T02:10:23;100830.59;;;6.80;100.00
27705;BME280;15109;50.992;6.918;2023-02-22T02:13:45;100835.84;;;6.82;100.00
27705;BME280;15109;50.992;6.918;2023-02-22T02:17:15;100831.44;;;6.81;100.00
27705;BME280;15109;50.992;6.918;2023-02-22T02:35:30;100820.53;;;6.73;100.00
27705;BME280;15109;50.992;6.918;2023-02-22T02:39:00;100821.91;;;6.77;100.00
27705;BME280;15109;50.992;6.918;2023-02-22T02:42:32;100819.69;;;6.72;100.00
27705;BME280;15109;50.992;6.918;2023-02-22T02:49:27;100811.88;;;6.77;100.00
27705;BME280;15109;50.992;6.918;2023-02-22T02:52:52;100812.19;;;6.74;100.00
27705;BME280;15109;50.992;6.918;2023-02-22T02:56:15;100822.06;;;6.75;100.00
27705;BME280;15109;50.992;6.918;2023-02-22T02:59:36;100813.59;;;6.78;100.00
27705;BME280;15109;50.992;6.918;2023-02-22T03:17:26;100812.16;;;6.66;100.00
27705;BME280;15109;50.992;6.918;2023-02-22T03:24:29;100800.81;;;6.71;100.00
27705;BME280;15109;50.992;6.918;2023-02-22T03:27:54;100800.94;;;6.69;100.00
27705;BME280;15109;50.992;6.918;2023-02-22T03:31:26;100801.28;;;6.66;100.00
27705;BME280;15109;50.992;6.918;2023-02-22T03:34:53;100803.13;;;6.66;100.00
27705;BME280;15109;50.992;6.918;2023-02-22T03:38:19;100801.66;;;6.71;100.00
27705;BME280;15109;50.992;6.918;2023-02-22T03:41:46;100799.78;;;6.72;100.00
27705;BME280;15109;50.992;6.918;2023-02-22T03:45:18;100799.94;;;6.70;100.00
27705;BME280;15109;50.992;6.918;2023-02-22T03:48:56;100799.41;;;6.67;100.00
27705;BME280;15109;50.992;6.918;2023-02-22T03:52:18;100794.00;;;6.67;100.00
27705;BME280;15109;50.992;6.918;2023-02-22T03:55:39;100797.88;;;6.64;100.00
27705;BME280;15109;50.992;6.918;2023-02-22T03:59:06;100793.94;;;6.59;100.00
27705;BME280;15109;50.992;6.918;2023-02-22T04:02:27;100799.19;;;6.60;100.00
27705;BME280;15109;50.992;6.918;2023-02-22T04:05:49;100794.31;;;6.64;100.00
27705;BME280;15109;50.992;6.918;2023-02-22T04:09:10;100799.19;;;6.60;100.00
27705;BME280;15109;50.992;6.918;2023-02-22T04:12:31;100795.78;;;6.58;100.00
27705;BME280;15109;50.992;6.918;2023-02-22T04:15:57;100800.22;;;6.59;100.00
27705;BME280;15109;50.992;6.918;2023-02-22T04:19:18;100801.59;;;6.63;100.00
27705;BME280;15109;50.992;6.918;2023-02-22T04:22:40;100800.38;;;6.58;100.00
27705;BME280;15109;50.992;6.918;2023-02-22T04:26:01;100795.66;;;6.60;100.00
27705;BME280;15109;50.992;6.918;2023-02-22T04:29:24;100798.03;;;6.63;100.00
27705;BME280;15109;50.992;6.918;2023-02-22T04:32:45;100800.38;;;6.58;100.00
27705;BME280;15109;50.992;6.918;2023-02-22T04:36:09;100792.56;;;6.55;100.00
27705;BME280;15109;50.992;6.918;2023-02-22T04:39:31;100776.41;;;6.53;100.00
27705;BME280;15109;50.992;6.918;2023-02-22T04:42:52;100790.03;;;6.61;100.00
27705;BME280;15109;50.992;6.918;2023-02-22T04:46:13;100780.97;;;6.53;100.00
27705;BME280;15109;50.992;6.918;2023-02-22T04:49:35;100781.16;;;6.51;100.00
27705;BME280;15109;50.992;6.918;2023-02-22T04:52:56;100787.22;;;6.45;100.00
27705;BME280;15109;50.992;6.918;2023-02-22T04:56:18;100778.34;;;6.43;100.00
27705;BME280;15109;50.992;6.918;2023-02-22T04:59:40;100774.34;;;6.47;100.00
27705;BME280;15109;50.992;6.918;2023-02-22T05:03:05;100784.41;;;6.55;100.00
27705;BME280;15109;50.992;6.918;2023-02-22T05:06:29;100778.22;;;6.45;100.00
27705;BME280;15109;50.992;6.918;2023-02-22T05:09:50;100776.50;;;6.44;100.00
27705;BME280;15109;50.992;6.918;2023-02-22T05:13:14;100772.19;;;6.33;100.00
27705;BME280;15109;50.992;6.918;2023-02-22T05:16:35;100770.41;;;6.24;100.00
27705;BME280;15109;50.992;6.918;2023-02-22T05:19:56;100775.25;;;6.12;100.00
27705;BME280;15109;50.992;6.918;2023-02-22T05:23:17;100761.81;;;6.11;100.00
27705;BME280;15109;50.992;6.918;2023-02-22T05:26:38;100762.75;;;6.02;100.00
27705;BME280;15109;50.992;6.918;2023-02-22T05:30:00;100750.66;;;5.96;100.00
27705;BME280;15109;50.992;6.918;2023-02-22T05:33:21;100758.44;;;5.91;100.00
27705;BME280;15109;50.992;6.918;2023-02-22T05:36:42;100763.16;;;5.89;100.00
27705;BME280;15109;50.992;6.918;2023-02-22T05:40:03;100750.03;;;5.84;100.00
27705;BME280;15109;50.992;6.918;2023-02-22T05:43:24;100741.81;;;5.76;100.00
27705;BME280;15109;50.992;6.918;2023-02-22T05:46:45;100736.38;;;5.76;100.00
27705;BME280;15109;50.992;6.918;2023-02-22T05:50:07;100740.16;;;5.66;100.00
27705;BME280;15109;50.992;6.918;2023-02-22T05:53:28;100742.53;;;5.61;100.00
27705;BME280;15109;50.992;6.918;2023-02-22T05:56:49;100732.34;;;5.63;100.00
27705;BME280;15109;50.992;6.918;2023-02-22T06:00:16;100731.03;;;5.67;100.00
27705;BME280;15109;50.992;6.918;2023-02-22T06:03:38;100730.63;;;5.62;100.00
27705;BME280;15109;50.992;6.918;2023-02-22T06:06:59;100728.16;;;5.51;100.00
27705;BME280;15109;50.992;6.918;2023-02-22T06:10:20;100731.03;;;5.49;100.00
27705;BME280;15109;50.992;6.918;2023-02-22T06:13:48;100720.44;;;5.56;100.00
27705;BME280;15109;50.992;6.918;2023-02-22T06:17:09;100723.28;;;5.54;100.00
27705;BME280;15109;50.992;6.918;2023-02-22T06:20:30;100731.75;;;5.51;100.00
27705;BME280;15109;50.992;6.918;2023-02-22T06:23:53;100733.50;;;5.42;100.00
27705;BME280;15109;50.992;6.918;2023-02-22T06:27:14;100729.00;;;5.33;100.00
27705;BME280;15109;50.992;6.918;2023-02-22T06:30:35;100735.88;;;5.28;100.00
27705;BME280;15109;50.992;6.918;2023-02-22T06:33:56;100727.53;;;5.21;100.00
27705;BME280;15109;50.992;6.918;2023-02-22T06:37:17;100713.19;;;5.29;100.00
27705;BME280;15109;50.992;6.918;2023-02-22T06:40:38;100726.59;;;5.30;100.00
27705;BME280;15109;50.992;6.918;2023-02-22T06:43:59;100724.25;;;5.35;100.00
27705;BME280;15109;50.992;6.918;2023-02-22T06:47:20;100726.22;;;5.43;100.00
27705;BME280;15109;50.992;6.918;2023-02-22T06:50:41;100723.53;;;5.43;100.00
27705;BME280;15109;50.992;6.918;2023-02-22T06:54:02;100726.59;;;5.48;100.00
27705;BME280;15109;50.992;6.918;2023-02-22T06:57:24;100714.59;;;5.51;100.00
27705;BME280;15109;50.992;6.918;2023-02-22T07:00:45;100714.59;;;5.51;100.00
27705;BME280;15109;50.992;6.918;2023-02-22T07:04:06;100708.72;;;5.55;100.00
27705;BME280;15109;50.992;6.918;2023-02-22T07:07:27;100719.78;;;5.62;100.00
27705;BME280;15109;50.992;6.918;2023-02-22T07:10:49;100721.34;;;5.64;100.00
27705;BME280;15109;50.992;6.918;2023-02-22T07:14:10;100720.03;;;5.68;100.00
27705;BME280;15109;50.992;6.918;2023-02-22T07:17:31;100711.13;;;5.76;100.00
27705;BME280;15109;50.992;6.918;2023-02-22T07:20:52;100709.75;;;5.89;100.00
27705;BME280;15109;50.992;6.918;2023-02-22T07:24:14;100712.84;;;5.95;100.00
27705;BME280;15109;50.992;6.918;2023-02-22T07:27:38;100714.16;;;6.08;100.00
27705;BME280;15109;50.992;6.918;2023-02-22T07:31:01;100709.97;;;6.22;100.00
27705;BME280;15109;50.992;6.918;2023-02-22T07:34:22;100719.22;;;6.29;100.00
27705;BME280;15109;50.992;6.918;2023-02-22T07:37:43;100713.84;;;6.37;100.00
27705;BME280;15109;50.992;6.918;2023-02-22T07:41:04;100715.41;;;6.48;100.00
27705;BME280;15109;50.992;6.918;2023-02-22T07:44:25;100713.25;;;6.51;100.00
27705;BME280;15109;50.992;6.918;2023-02-22T07:47:46;100708.22;;;6.64;100.00
27705;BME280;15109;50.992;6.918;2023-02-22T07:51:08;100711.84;;;6.73;100.00
27705;BME280;15109;50.992;6.918;2023-02-22T07:54:29;100711.41;;;6.86;100.00
27705;BME280;15109;50.992;6.918;2023-02-22T07:57:53;100704.63;;;6.90;100.00
27705;BME280;15109;50.992;6.918;2023-02-22T08:01:14;100700.38;;;6.95;100.00
27705;BME280;15109;50.992;6.918;2023-02-22T08:04:35;100701.59;;;7.01;100.00
27705;BME280;15109;50.992;6.918;2023-02-22T08:07:56;100695.81;;;7.04;100.00
27705;BME280;15109;50.992;6.918;2023-02-22T08:11:17;100694.16;;;7.11;100.00
27705;BME280;15109;50.992;6.918;2023-02-22T08:14:39;100691.47;;;7.19;100.00
27705;BME280;15109;50.992;6.918;2023-02-22T08:18:01;100685.69;;;7.30;100.00
27705;BME280;15109;50.992;6.918;2023-02-22T08:21:23;100686.56;;;7.39;100.00
27705;BME280;15109;50.992;6.918;2023-02-22T08:24:44;100684.19;;;7.44;100.00
27705;BME280;15109;50.992;6.918;2023-02-22T08:28:10;100678.44;;;7.55;100.00
27705;BME280;15109;50.992;6.918;2023-02-22T08:31:31;100683.72;;;7.64;100.00
27705;BME280;15109;50.992;6.918;2023-02-22T08:34:52;100673.53;;;7.74;100.00
27705;BME280;15109;50.992;6.918;2023-02-22T08:41:42;100669.09;;;7.98;100.00
27705;BME280;15109;50.992;6.918;2023-02-22T08:45:04;100662.94;;;8.04;100.00
27705;BME280;15109;50.992;6.918;2023-02-22T08:48:25;100668.38;;;8.12;100.00
27705;BME280;15109;50.992;6.918;2023-02-22T08:51:46;100661.56;;;8.24;100.00
27705;BME280;15109;50.992;6.918;2023-02-22T08:55:07;100658.19;;;8.30;100.00
27705;BME280;15109;50.992;6.918;2023-02-22T08:58:28;100650.31;;;8.43;100.00
27705;BME280;15109;50.992;6.918;2023-02-22T09:01:49;100650.28;;;8.51;100.00
27705;BME280;15109;50.992;6.918;2023-02-22T09:05:11;100652.13;;;8.59;100.00
27705;BME280;15109;50.992;6.918;2023-02-22T09:08:32;100648.88;;;8.63;100.00
27705;BME280;15109;50.992;6.918;2023-02-22T09:11:53;100643.41;;;8.72;100.00
27705;BME280;15109;50.992;6.918;2023-02-22T09:15:14;100648.50;;;8.75;100.00
27705;BME280;15109;50.992;6.918;2023-02-22T09:18:35;100644.72;;;8.84;100.00
27705;BME280;15109;50.992;6.918;2023-02-22T09:21:58;100639.56;;;8.89;100.00
27705;BME280;15109;50.992;6.918;2023-02-22T09:25:22;100655.91;;;8.97;100.00
27705;BME280;15109;50.992;6.918;2023-02-22T09:28:43;100648.88;;;9.02;100.00
27705;BME280;15109;50.992;6.918;2023-02-22T09:32:04;100643.69;;;9.16;100.00
27705;BME280;15109;50.992;6.918;2023-02-22T09:35:26;100651.72;;;9.17;100.00
27705;BME280;15109;50.992;6.918;2023-02-22T09:38:47;100652.69;;;9.24;100.00
27705;BME280;15109;50.992;6.918;2023-02-22T09:42:34;100649.06;;;9.32;100.00
27705;BME280;15109;50.992;6.918;2023-02-22T09:46:21;100654.59;;;9.46;100.00
27705;BME280;15109;50.992;6.918;2023-02-22T09:53:27;100647.59;;;9.67;100.00
27705;BME280;15109;50.992;6.918;2023-02-22T09:56:55;100637.97;;;9.79;100.00
27705;BME280;15109;50.992;6.918;2023-02-22T10:00:20;100638.38;;;9.90;100.00
27705;BME280;15109;50.992;6.918;2023-02-22T10:10:47;100634.63;;;10.06;100.00
27705;BME280;15109;50.992;6.918;2023-02-22T10:25:11;100614.75;;;10.35;100.00
27705;BME280;15109;50.992;6.918;2023-02-22T10:28:39;100609.47;;;10.48;100.00
27705;BME280;15109;50.992;6.918;2023-02-22T10:32:03;100614.44;;;10.59;100.00
27705;BME280;15109;50.992;6.918;2023-02-22T10:35:32;100614.34;;;10.67;100.00
27705;BME280;15109;50.992;6.918;2023-02-22T10:39:00;100603.88;;;10.71;100.00
27705;BME280;15109;50.992;6.918;2023-02-22T10:42:25;100603.88;;;10.71;100.00
27705;BME280;15109;50.992;6.918;2023-02-22T10:45:50;100600.19;;;10.78;100.00
27705;BME280;15109;50.992;6.918;2023-02-22T10:49:20;100606.19;;;10.88;100.00
27705;BME280;15109;50.992;6.918;2023-02-22T10:52:43;100602.25;;;10.91;100.00
27705;BME280;15109;50.992;6.918;2023-02-22T10:56:05;100599.31;;;10.92;100.00
27705;BME280;15109;50.992;6.918;2023-02-22T10:59:37;100582.84;;;11.07;100.00
27705;BME280;15109;50.992;6.918;2023-02-22T11:03:00;100591.66;;;11.24;100.00
27705;BME280;15109;50.992;6.918;2023-02-22T11:06:22;100581.84;;;11.29;100.00
27705;BME280;15109;50.992;6.918;2023-02-22T11:09:56;100577.66;;;11.33;100.00
27705;BME280;15109;50.992;6.918;2023-02-22T11:13:30;100576.28;;;11.44;100.00
27705;BME280;15109;50.992;6.918;2023-02-22T11:16:54;100574.53;;;11.58;100.00
27705;BME280;15109;50.992;6.918;2023-02-22T11:20:18;100580.94;;;11.65;100.00
27705;BME280;15109;50.992;6.918;2023-02-22T11:23:45;100563.75;;;11.56;100.00
27705;BME280;15109;50.992;6.918;2023-02-22T11:27:06;100563.06;;;11.69;100.00
27705;BME280;15109;50.992;6.918;2023-02-22T11:30:29;100565.88;;;11.75;100.00
27705;BME280;15109;50.992;6.918;2023-02-22T11:33:56;100566.31;;;11.79;100.00
27705;BME280;15109;50.992;6.918;2023-02-22T11:40:42;100552.19;;;12.03;100.00
27705;BME280;15109;50.992;6.918;2023-02-22T11:47:35;100551.63;;;12.14;100.00
27705;BME280;15109;50.992;6.918;2023-02-22T11:51:24;100546.66;;;12.31;100.00
27705;BME280;15109;50.992;6.918;2023-02-22T12:01:46;100524.59;;;12.52;100.00
27705;BME280;15109;50.992;6.918;2023-02-22T12:05:33;100522.09;;;12.51;100.00
27705;BME280;15109;50.992;6.918;2023-02-22T12:09:37;100518.75;;;12.68;100.00
27705;BME280;15109;50.992;6.918;2023-02-22T12:13:04;100513.50;;;12.67;100.00
27705;BME280;15109;50.992;6.918;2023-02-22T12:20:22;100527.16;;;12.60;100.00
27705;BME280;15109;50.992;6.918;2023-02-22T12:23:53;100522.97;;;12.64;100.00
27705;BME280;15109;50.992;6.918;2023-02-22T12:27:23;100520.69;;;12.74;100.00
27705;BME280;15109;50.992;6.918;2023-02-22T12:30:54;100523.47;;;12.81;100.00
27705;BME280;15109;50.992;6.918;2023-02-22T12:41:49;100520.31;;;12.91;100.00
27705;BME280;15109;50.992;6.918;2023-02-22T12:49:12;100518.66;;;12.96;100.00
27705;BME280;15109;50.992;6.918;2023-02-22T12:52:41;100516.34;;;13.00;100.00
27705;BME280;15109;50.992;6.918;2023-02-22T12:56:27;100514.88;;;13.04;100.00
27705;BME280;15109;50.992;6.918;2023-02-22T13:00:20;100509.81;;;13.01;100.00
27705;BME280;15109;50.992;6.918;2023-02-22T13:03:46;100518.03;;;12.94;100.00
27705;BME280;15109;50.992;6.918;2023-02-22T13:07:34;100509.78;;;12.94;100.00
27705;BME280;15109;50.992;6.918;2023-02-22T13:11:21;100518.03;;;12.94;100.00
27705;BME280;15109;50.992;6.918;2023-02-22T13:22:04;100509.16;;;12.99;100.00
27705;BME280;15109;50.992;6.918;2023-02-22T13:29:48;100504.38;;;13.14;100.00
27705;BME280;15109;50.992;6.918;2023-02-22T13:43:59;100501.41;;;13.42;100.00
27705;BME280;15109;50.992;6.918;2023-02-22T13:51:05;100503.53;;;13.73;100.00
27705;BME280;15109;50.992;6.918;2023-02-22T13:54:37;100499.53;;;13.88;100.00
27705;BME280;15109;50.992;6.918;2023-02-22T13:58:08;100502.25;;;14.01;100.00
27705;BME280;15109;50.992;6.918;2023-02-22T14:01:55;100506.25;;;14.05;100.00
27705;BME280;15109;50.992;6.918;2023-02-22T14:09:15;100499.69;;;14.13;100.00
27705;BME280;15109;50.992;6.918;2023-02-22T14:12:46;100498.22;;;14.11;100.00
27705;BME280;15109;50.992;6.918;2023-02-22T14:19:32;100492.94;;;13.96;100.00
27705;BME280;15109;50.992;6.918;2023-02-22T14:22:53;100495.25;;;14.05;100.00
27705;BME280;15109;50.992;6.918;2023-02-22T14:26:43;100489.97;;;14.04;100.00
27705;BME280;15109;50.992;6.918;2023-02-22T14:30:25;100490.41;;;13.94;100.00
27705;BME280;15109;50.992;6.918;2023-02-22T14:37:34;100481.94;;;13.89;100.00
27705;BME280;15109;50.992;6.918;2023-02-22T14:40:58;100482.59;;;13.91;100.00
27705;BME280;15109;50.992;6.918;2023-02-22T14:44:24;100483.84;;;13.95;100.00
27705;BME280;15109;50.992;6.918;2023-02-22T14:47:53;100480.91;;;13.97;100.00
27705;BME280;15109;50.992;6.918;2023-02-22T14:51:24;100480.66;;;13.98;100.00
27705;BME280;15109;50.992;6.918;2023-02-22T15:02:13;100489.97;;;14.11;100.00
27705;BME280;15109;50.992;6.918;2023-02-22T15:05:36;100484.88;;;14.14;100.00
27705;BME280;15109;50.992;6.918;2023-02-22T15:09:14;100492.28;;;14.14;100.00
27705;BME280;15109;50.992;6.918;2023-02-22T15:13:04;100482.97;;;14.08;100.00
27705;BME280;15109;50.992;6.918;2023-02-22T15:16:31;100477.03;;;14.11;100.00
27705;BME280;15109;50.992;6.918;2023-02-22T15:19:53;100484.28;;;14.05;100.00
27705;BME280;15109;50.992;6.918;2023-02-22T15:23:15;100492.50;;;14.05;100.00
27705;BME280;15109;50.992;6.918;2023-02-22T15:26:41;100490.19;;;13.96;100.00
27705;BME280;15109;50.992;6.918;2023-02-22T15:30:06;100494.88;;;13.89;100.00
27705;BME280;15109;50.992;6.918;2023-02-22T15:33:28;100497.63;;;13.82;100.00
27705;BME280;15109;50.992;6.918;2023-02-22T15:36:52;100491.06;;;13.77;100.00
27705;BME280;15109;50.992;6.918;2023-02-22T15:40:19;100490.66;;;13.67;100.00
27705;BME280;15109;50.992;6.918;2023-02-22T15:43:40;100495.31;;;13.59;100.00
27705;BME280;15109;50.992;6.918;2023-02-22T15:47:02;100498.47;;;13.56;100.00
27705;BME280;15109;50.992;6.918;2023-02-22T15:50:29;100504.59;;;13.52;100.00
27705;BME280;15109;50.992;6.918;2023-02-22T15:53:52;100502.91;;;13.51;100.00
27705;BME280;15109;50.992;6.918;2023-02-22T15:57:15;100509.69;;;13.48;100.00
27705;BME280;15109;50.992;6.918;2023-02-22T16:00:40;100511.38;;;13.43;100.00
27705;BME280;15109;50.992;6.918;2023-02-22T16:04:01;100508.41;;;13.38;100.00
27705;BME280;15109;50.992;6.918;2023-02-22T16:07:23;100502.91;;;13.31;100.00
27705;BME280;15109;50.992;6.918;2023-02-22T16:10:50;100516.00;;;13.23;100.00
27705;BME280;15109;50.992;6.918;2023-02-22T16:14:27;100507.31;;;13.12;100.00
27705;BME280;15109;50.992;6.918;2023-02-22T16:17:48;100512.13;;;13.04;100.00
27705;BME280;15109;50.992;6.918;2023-02-22T16:21:12;100519.50;;;12.97;100.00
27705;BME280;15109;50.992;6.918;2023-02-22T16:24:34;100508.28;;;12.85;100.00
27705;BME280;15109;50.992;6.918;2023-02-22T16:28:01;100515.41;;;12.73;100.00
27705;BME280;15109;50.992;6.918;2023-02-22T16:31:38;100513.47;;;12.60;100.00
27705;BME280;15109;50.992;6.918;2023-02-22T16:34:59;100517.84;;;12.48;100.00
27705;BME280;15109;50.992;6.918;2023-02-22T16:38:20;100526.22;;;12.34;100.00
27705;BME280;15109;50.992;6.918;2023-02-22T16:41:41;100530.38;;;12.23;100.00
27705;BME280;15109;50.992;6.918;2023-02-22T16:45:02;100530.34;;;12.16;100.00
27705;BME280;15109;50.992;6.918;2023-02-22T16:48:25;100518.44;;;12.03;100.00
27705;BME280;15109;50.992;6.918;2023-02-22T16:51:52;100527.66;;;11.95;100.00
27705;BME280;15109;50.992;6.918;2023-02-22T16:55:16;100530.16;;;11.90;100.00
27705;BME280;15109;50.992;6.918;2023-02-22T16:58:39;100539.38;;;11.82;100.00
27705;BME280;15109;50.992;6.918;2023-02-22T17:02:01;100530.44;;;11.74;100.00
27705;BME280;15109;50.992;6.918;2023-02-22T17:05:28;100535.19;;;11.65;100.00
27705;BME280;15109;50.992;6.918;2023-02-22T17:08:49;100543.38;;;11.59;100.00
27705;BME280;15109;50.992;6.918;2023-02-22T17:12:12;100547.94;;;11.52;100.00
27705;BME280;15109;50.992;6.918;2023-02-22T17:15:34;100545.13;;;11.45;100.00
27705;BME280;15109;50.992;6.918;2023-02-22T17:18:56;100546.56;;;11.41;100.00
27705;BME280;15109;50.992;6.918;2023-02-22T17:22:21;100554.75;;;11.34;100.00
27705;BME280;15109;50.992;6.918;2023-02-22T17:25:50;100552.78;;;11.28;100.00
27705;BME280;15109;50.992;6.918;2023-02-22T17:29:13;100552.09;;;11.26;100.00
27705;BME280;15109;50.992;6.918;2023-02-22T17:32:35;100547.47;;;11.27;100.00
27705;BME280;15109;50.992;6.918;2023-02-22T17:35:57;100556.28;;;11.22;100.00
27705;BME280;15109;50.992;6.918;2023-02-22T17:39:19;100561.50;;;11.17;100.00
27705;BME280;15109;50.992;6.918;2023-02-22T17:42:41;100567.94;;;11.10;100.00
27705;BME280;15109;50.992;6.918;2023-02-22T17:46:06;100573.53;;;11.02;100.00
27705;BME280;15109;50.992;6.918;2023-02-22T17:49:27;100573.25;;;10.97;100.00
27705;BME280;15109;50.992;6.918;2023-02-22T17:52:49;100586.00;;;10.89;100.00
27705;BME280;15109;50.992;6.918;2023-02-22T17:56:15;100580.94;;;10.86;100.00
27705;BME280;15109;50.992;6.918;2023-02-22T17:59:40;100584.59;;;10.93;100.00
27705;BME280;15109;50.992;6.918;2023-02-22T18:03:07;100586.31;;;10.80;100.00
27705;BME280;15109;50.992;6.918;2023-02-22T18:06:30;100593.59;;;10.73;100.00
27705;BME280;15109;50.992;6.918;2023-02-22T18:09:52;100583.88;;;10.70;100.00
27705;BME280;15109;50.992;6.918;2023-02-22T18:13:15;100589.16;;;10.72;100.00
27705;BME280;15109;50.992;6.918;2023-02-22T18:16:38;100586.81;;;10.69;100.00
27705;BME280;15109;50.992;6.918;2023-02-22T18:19:59;100585.50;;;10.65;100.00
27705;BME280;15109;50.992;6.918;2023-02-22T18:23:20;100589.44;;;10.62;100.00
27705;BME280;15109;50.992;6.918;2023-02-22T18:26:42;100591.72;;;10.59;100.00
27705;BME280;15109;50.992;6.918;2023-02-22T18:30:04;100593.25;;;10.61;100.00
27705;BME280;15109;50.992;6.918;2023-02-22T18:33:26;100590.75;;;10.66;100.00
27705;BME280;15109;50.992;6.918;2023-02-22T18:36:47;100597.75;;;10.69;100.00
27705;BME280;15109;50.992;6.918;2023-02-22T18:40:08;100594.06;;;10.76;100.00
27705;BME280;15109;50.992;6.918;2023-02-22T18:43:31;100602.59;;;10.88;100.00
27705;BME280;15109;50.992;6.918;2023-02-22T18:46:53;100606.94;;;10.97;100.00
27705;BME280;15109;50.992;6.918;2023-02-22T18:50:15;100600.50;;;11.05;100.00
27705;BME280;15109;50.992;6.918;2023-02-22T18:53:39;100610.38;;;11.20;100.00
27705;BME280;15109;50.992;6.918;2023-02-22T18:57:02;100605.53;;;11.22;100.00
27705;BME280;15109;50.992;6.918;2023-02-22T19:00:23;100596.84;;;11.33;100.00
27705;BME280;15109;50.992;6.918;2023-02-22T19:03:48;100605.91;;;11.34;100.00
27705;BME280;15109;50.992;6.918;2023-02-22T19:07:11;100609.84;;;11.31;100.00
27705;BME280;15109;50.992;6.918;2023-02-22T19:10:37;100617.63;;;11.28;100.00
27705;BME280;15109;50.992;6.918;2023-02-22T19:13:58;100598.91;;;11.31;100.00
27705;BME280;15109;50.992;6.918;2023-02-22T19:17:20;100612.22;;;11.34;100.00
27705;BME280;15109;50.992;6.918;2023-02-22T19:20:41;100608.41;;;11.35;100.00
27705;BME280;15109;50.992;6.918;2023-02-22T19:24:04;100609.53;;;11.41;100.00
27705;BME280;15109;50.992;6.918;2023-02-22T19:27:25;100603.03;;;11.42;100.00
27705;BME280;15109;50.992;6.918;2023-02-22T19:30:49;100606.63;;;11.43;100.00
27705;BME280;15109;50.992;6.918;2023-02-22T19:34:11;100618.41;;;11.43;100.00
27705;BME280;15109;50.992;6.918;2023-02-22T19:37:34;100606.63;;;11.43;100.00
27705;BME280;15109;50.992;6.918;2023-02-22T19:40:56;100613.53;;;11.38;100.00
27705;BME280;15109;50.992;6.918;2023-02-22T19:44:17;100612.72;;;11.45;100.00
27705;BME280;15109;50.992;6.918;2023-02-22T19:47:38;100610.66;;;11.47;100.00
27705;BME280;15109;50.992;6.918;2023-02-22T19:51:04;100612.09;;;11.43;100.00
27705;BME280;15109;50.992;6.918;2023-02-22T19:54:26;100609.53;;;11.41;100.00
27705;BME280;15109;50.992;6.918;2023-02-22T19:57:47;100615.41;;;11.38;100.00